sensor_id;sensor_type;location;lat;lon;timestamp;P1;durP1;ratioP1;P2;durP2;ratioP2
86502;SDS011;77239;46.070;20.246;2024-03-23T00:54:35;33.90;;;20.63;;
86502;SDS011;77239;46.070;20.246;2024-03-23T00:57:00;41.58;;;23.23;;
86502;SDS011;77239;46.070;20.246;2024-03-23T00:59:25;43.23;;;24.03;;
86502;SDS011;77239;46.070;20.246;2024-03-23T01:01:54;38.85;;;22.00;;
86502;SDS011;77239;46.070;20.246;2024-03-23T01:04:20;36.13;;;21.98;;
86502;SDS011;77239;46.070;20.246;2024-03-23T01:06:45;37.55;;;20.92;;
86502;SDS011;77239;46.070;20.246;2024-03-23T01:09:12;41.08;;;21.63;;
86502;SDS011;77239;46.070;20.246;2024-03-23T01:11:38;36.33;;;22.42;;
86502;SDS011;77239;46.070;20.246;2024-03-23T01:14:04;36.95;;;20.63;;
86502;SDS011;77239;46.070;20.246;2024-03-23T01:16:29;42.58;;;22.92;;
86502;SDS011;77239;46.070;20.246;2024-03-23T01:18:54;37.45;;;21.77;;
86502;SDS011;77239;46.070;20.246;2024-03-23T01:21:20;41.58;;;22.25;;
86502;SDS011;77239;46.070;20.246;2024-03-23T01:23:45;38.88;;;22.85;;
86502;SDS011;77239;46.070;20.246;2024-03-23T01:26:11;41.58;;;24.17;;
86502;SDS011;77239;46.070;20.246;2024-03-23T01:28:36;44.95;;;25.63;;
86502;SDS011;77239;46.070;20.246;2024-03-23T01:31:01;42.88;;;23.45;;
86502;SDS011;77239;46.070;20.246;2024-03-23T01:33:27;47.70;;;24.00;;
86502;SDS011;77239;46.070;20.246;2024-03-23T01:35:52;43.92;;;23.42;;
86502;SDS011;77239;46.070;20.246;2024-03-23T01:38:18;39.33;;;22.97;;
86502;SDS011;77239;46.070;20.246;2024-03-23T01:40:43;39.83;;;21.85;;
86502;SDS011;77239;46.070;20.246;2024-03-23T01:43:09;37.83;;;22.17;;
86502;SDS011;77239;46.070;20.246;2024-03-23T01:45:34;41.40;;;23.20;;
86502;SDS011;77239;46.070;20.246;2024-03-23T01:48:00;43.45;;;23.48;;
86502;SDS011;77239;46.070;20.246;2024-03-23T01:50:26;38.08;;;22.52;;
86502;SDS011;77239;46.070;20.246;2024-03-23T01:52:52;40.80;;;23.80;;
86502;SDS011;77239;46.070;20.246;2024-03-23T01:55:18;43.20;;;22.92;;
86502;SDS011;77239;46.070;20.246;2024-03-23T01:57:44;34.28;;;20.77;;
86502;SDS011;77239;46.070;20.246;2024-03-23T02:00:10;40.30;;;21.23;;
86502;SDS011;77239;46.070;20.246;2024-03-23T02:02:41;40.50;;;21.98;;
86502;SDS011;77239;46.070;20.246;2024-03-23T02:05:15;37.30;;;20.75;;
86502;SDS011;77239;46.070;20.246;2024-03-23T02:07:41;32.85;;;18.33;;
86502;SDS011;77239;46.070;20.246;2024-03-23T02:10:10;37.50;;;21.63;;
86502;SDS011;77239;46.070;20.246;2024-03-23T02:12:38;38.90;;;21.23;;
86502;SDS011;77239;46.070;20.246;2024-03-23T02:15:04;32.10;;;20.65;;
86502;SDS011;77239;46.070;20.246;2024-03-23T02:17:30;39.88;;;19.85;;
86502;SDS011;77239;46.070;20.246;2024-03-23T02:19:57;34.97;;;18.40;;
86502;SDS011;77239;46.070;20.246;2024-03-23T02:22:22;37.60;;;21.23;;
86502;SDS011;77239;46.070;20.246;2024-03-23T02:24:48;37.78;;;21.08;;
86502;SDS011;77239;46.070;20.246;2024-03-23T02:27:13;35.60;;;18.70;;
86502;SDS011;77239;46.070;20.246;2024-03-23T02:29:39;33.42;;;20.13;;
86502;SDS011;77239;46.070;20.246;2024-03-23T02:32:04;34.03;;;19.65;;
86502;SDS011;77239;46.070;20.246;2024-03-23T02:34:30;39.20;;;21.88;;
86502;SDS011;77239;46.070;20.246;2024-03-23T02:36:56;42.78;;;20.42;;
86502;SDS011;77239;46.070;20.246;2024-03-23T02:39:21;39.38;;;20.77;;
86502;SDS011;77239;46.070;20.246;2024-03-23T02:41:47;38.20;;;22.13;;
86502;SDS011;77239;46.070;20.246;2024-03-23T02:44:13;33.85;;;19.23;;
86502;SDS011;77239;46.070;20.246;2024-03-23T02:46:39;39.72;;;21.65;;
86502;SDS011;77239;46.070;20.246;2024-03-23T02:49:04;40.17;;;21.65;;
86502;SDS011;77239;46.070;20.246;2024-03-23T02:51:29;38.60;;;20.58;;
86502;SDS011;77239;46.070;20.246;2024-03-23T02:53:55;36.25;;;21.98;;
86502;SDS011;77239;46.070;20.246;2024-03-23T02:56:21;41.25;;;21.92;;
86502;SDS011;77239;46.070;20.246;2024-03-23T02:58:46;38.40;;;21.55;;
86502;SDS011;77239;46.070;20.246;2024-03-23T03:01:11;36.40;;;19.80;;
86502;SDS011;77239;46.070;20.246;2024-03-23T03:03:37;43.17;;;22.70;;
86502;SDS011;77239;46.070;20.246;2024-03-23T03:06:02;36.47;;;21.65;;
86502;SDS011;77239;46.070;20.246;2024-03-23T03:08:28;45.42;;;24.55;;
86502;SDS011;77239;46.070;20.246;2024-03-23T03:10:53;40.75;;;21.13;;
86502;SDS011;77239;46.070;20.246;2024-03-23T03:13:19;35.65;;;21.05;;
86502;SDS011;77239;46.070;20.246;2024-03-23T03:15:44;35.13;;;18.93;;
86502;SDS011;77239;46.070;20.246;2024-03-23T03:18:10;33.63;;;20.13;;
86502;SDS011;77239;46.070;20.246;2024-03-23T03:20:38;38.90;;;20.98;;
86502;SDS011;77239;46.070;20.246;2024-03-23T03:23:04;39.50;;;20.80;;
86502;SDS011;77239;46.070;20.246;2024-03-23T03:25:30;35.17;;;21.50;;
86502;SDS011;77239;46.070;20.246;2024-03-23T03:27:55;38.27;;;21.00;;
86502;SDS011;77239;46.070;20.246;2024-03-23T03:30:21;38.45;;;19.30;;
86502;SDS011;77239;46.070;20.246;2024-03-23T03:32:46;36.37;;;20.83;;
86502;SDS011;77239;46.070;20.246;2024-03-23T03:35:11;41.03;;;22.93;;
86502;SDS011;77239;46.070;20.246;2024-03-23T03:37:37;40.08;;;22.00;;
86502;SDS011;77239;46.070;20.246;2024-03-23T03:40:02;35.13;;;22.00;;
86502;SDS011;77239;46.070;20.246;2024-03-23T03:42:28;46.03;;;22.38;;
86502;SDS011;77239;46.070;20.246;2024-03-23T03:44:53;51.67;;;22.63;;
86502;SDS011;77239;46.070;20.246;2024-03-23T03:47:19;41.47;;;22.08;;
86502;SDS011;77239;46.070;20.246;2024-03-23T03:49:44;33.88;;;19.63;;
86502;SDS011;77239;46.070;20.246;2024-03-23T03:52:10;35.05;;;21.70;;
86502;SDS011;77239;46.070;20.246;2024-03-23T03:54:36;40.53;;;22.65;;
86502;SDS011;77239;46.070;20.246;2024-03-23T03:57:01;40.35;;;22.77;;
86502;SDS011;77239;46.070;20.246;2024-03-23T03:59:27;43.67;;;22.00;;
86502;SDS011;77239;46.070;20.246;2024-03-23T04:01:52;41.03;;;20.83;;
86502;SDS011;77239;46.070;20.246;2024-03-23T04:04:17;40.47;;;22.43;;
86502;SDS011;77239;46.070;20.246;2024-03-23T04:06:43;35.80;;;21.80;;
86502;SDS011;77239;46.070;20.246;2024-03-23T04:09:09;38.17;;;22.02;;
86502;SDS011;77239;46.070;20.246;2024-03-23T04:11:35;38.35;;;21.02;;
86502;SDS011;77239;46.070;20.246;2024-03-23T04:14:00;37.03;;;20.73;;
86502;SDS011;77239;46.070;20.246;2024-03-23T04:16:27;43.80;;;23.45;;
86502;SDS011;77239;46.070;20.246;2024-03-23T04:18:53;37.13;;;21.90;;
86502;SDS011;77239;46.070;20.246;2024-03-23T04:21:18;43.03;;;23.10;;
86502;SDS011;77239;46.070;20.246;2024-03-23T04:23:44;38.22;;;21.75;;
86502;SDS011;77239;46.070;20.246;2024-03-23T04:26:09;39.90;;;21.83;;
86502;SDS011;77239;46.070;20.246;2024-03-23T04:28:35;48.63;;;25.53;;
86502;SDS011;77239;46.070;20.246;2024-03-23T04:31:03;36.93;;;20.43;;
86502;SDS011;77239;46.070;20.246;2024-03-23T04:33:29;42.30;;;22.10;;
86502;SDS011;77239;46.070;20.246;2024-03-23T04:35:54;37.75;;;20.38;;
86502;SDS011;77239;46.070;20.246;2024-03-23T04:38:20;38.00;;;22.23;;
86502;SDS011;77239;46.070;20.246;2024-03-23T04:40:53;39.80;;;23.48;;
86502;SDS011;77239;46.070;20.246;2024-03-23T04:43:22;40.33;;;23.73;;
86502;SDS011;77239;46.070;20.246;2024-03-23T04:45:48;41.08;;;21.50;;
86502;SDS011;77239;46.070;20.246;2024-03-23T04:48:14;43.47;;;21.38;;
86502;SDS011;77239;46.070;20.246;2024-03-23T04:50:39;47.38;;;21.95;;
86502;SDS011;77239;46.070;20.246;2024-03-23T04:53:06;39.42;;;20.88;;
86502;SDS011;77239;46.070;20.246;2024-03-23T04:55:31;39.03;;;22.73;;
86502;SDS011;77239;46.070;20.246;2024-03-23T04:57:57;44.60;;;24.40;;
86502;SDS011;77239;46.070;20.246;2024-03-23T05:00:22;41.50;;;19.70;;
86502;SDS011;77239;46.070;20.246;2024-03-23T05:02:48;40.28;;;22.17;;
86502;SDS011;77239;46.070;20.246;2024-03-23T05:05:13;40.95;;;21.65;;
86502;SDS011;77239;46.070;20.246;2024-03-23T05:07:39;45.67;;;22.80;;
86502;SDS011;77239;46.070;20.246;2024-03-23T05:10:04;40.72;;;20.92;;
86502;SDS011;77239;46.070;20.246;2024-03-23T05:12:30;40.08;;;22.33;;
86502;SDS011;77239;46.070;20.246;2024-03-23T05:14:56;35.05;;;20.35;;
86502;SDS011;77239;46.070;20.246;2024-03-23T05:17:21;35.30;;;19.88;;
86502;SDS011;77239;46.070;20.246;2024-03-23T05:19:47;38.17;;;19.73;;
86502;SDS011;77239;46.070;20.246;2024-03-23T05:22:12;40.37;;;20.70;;
86502;SDS011;77239;46.070;20.246;2024-03-23T05:24:37;39.80;;;20.52;;
86502;SDS011;77239;46.070;20.246;2024-03-23T05:27:03;32.77;;;19.10;;
86502;SDS011;77239;46.070;20.246;2024-03-23T05:29:28;40.08;;;20.25;;
86502;SDS011;77239;46.070;20.246;2024-03-23T05:31:54;41.35;;;22.73;;
86502;SDS011;77239;46.070;20.246;2024-03-23T05:34:22;35.20;;;21.05;;
86502;SDS011;77239;46.070;20.246;2024-03-23T05:36:47;33.75;;;18.83;;
86502;SDS011;77239;46.070;20.246;2024-03-23T05:39:14;36.08;;;21.33;;
86502;SDS011;77239;46.070;20.246;2024-03-23T05:41:41;35.58;;;19.90;;
86502;SDS011;77239;46.070;20.246;2024-03-23T05:44:07;32.28;;;18.60;;
86502;SDS011;77239;46.070;20.246;2024-03-23T05:46:32;38.10;;;19.73;;
86502;SDS011;77239;46.070;20.246;2024-03-23T05:48:58;39.35;;;23.05;;
86502;SDS011;77239;46.070;20.246;2024-03-23T05:51:27;37.42;;;21.55;;
86502;SDS011;77239;46.070;20.246;2024-03-23T05:53:52;37.08;;;21.70;;
86502;SDS011;77239;46.070;20.246;2024-03-23T05:56:19;35.43;;;20.47;;
86502;SDS011;77239;46.070;20.246;2024-03-23T05:58:44;33.55;;;21.23;;
86502;SDS011;77239;46.070;20.246;2024-03-23T06:01:10;39.28;;;20.02;;
86502;SDS011;77239;46.070;20.246;2024-03-23T06:03:35;40.65;;;21.17;;
86502;SDS011;77239;46.070;20.246;2024-03-23T06:06:01;62.83;;;23.43;;
86502;SDS011;77239;46.070;20.246;2024-03-23T06:08:27;37.33;;;21.02;;
86502;SDS011;77239;46.070;20.246;2024-03-23T06:10:52;35.27;;;21.17;;
86502;SDS011;77239;46.070;20.246;2024-03-23T06:13:17;35.85;;;20.63;;
86502;SDS011;77239;46.070;20.246;2024-03-23T06:15:43;33.13;;;18.73;;
86502;SDS011;77239;46.070;20.246;2024-03-23T06:18:10;35.55;;;18.42;;
86502;SDS011;77239;46.070;20.246;2024-03-23T06:20:36;31.05;;;20.40;;
86502;SDS011;77239;46.070;20.246;2024-03-23T06:23:02;32.45;;;18.58;;
86502;SDS011;77239;46.070;20.246;2024-03-23T06:25:28;34.65;;;17.55;;
86502;SDS011;77239;46.070;20.246;2024-03-23T06:27:54;33.72;;;19.55;;
86502;SDS011;77239;46.070;20.246;2024-03-23T06:30:20;40.63;;;20.00;;
86502;SDS011;77239;46.070;20.246;2024-03-23T06:32:45;35.65;;;19.25;;
86502;SDS011;77239;46.070;20.246;2024-03-23T06:35:11;32.42;;;19.30;;
86502;SDS011;77239;46.070;20.246;2024-03-23T06:37:36;31.45;;;18.38;;
86502;SDS011;77239;46.070;20.246;2024-03-23T06:40:02;36.55;;;18.35;;
86502;SDS011;77239;46.070;20.246;2024-03-23T06:44:55;31.17;;;19.10;;
86502;SDS011;77239;46.070;20.246;2024-03-23T06:47:20;34.08;;;19.48;;
86502;SDS011;77239;46.070;20.246;2024-03-23T06:49:45;32.03;;;18.85;;
86502;SDS011;77239;46.070;20.246;2024-03-23T06:52:11;32.15;;;17.77;;
86502;SDS011;77239;46.070;20.246;2024-03-23T06:54:36;28.50;;;17.38;;
86502;SDS011;77239;46.070;20.246;2024-03-23T06:57:01;31.75;;;20.13;;
86502;SDS011;77239;46.070;20.246;2024-03-23T06:59:28;31.52;;;17.30;;
86502;SDS011;77239;46.070;20.246;2024-03-23T07:01:53;27.38;;;17.17;;
86502;SDS011;77239;46.070;20.246;2024-03-23T07:04:18;38.25;;;18.05;;
86502;SDS011;77239;46.070;20.246;2024-03-23T07:06:45;26.90;;;16.30;;
86502;SDS011;77239;46.070;20.246;2024-03-23T07:09:10;28.52;;;15.80;;
86502;SDS011;77239;46.070;20.246;2024-03-23T07:11:36;30.33;;;17.85;;
86502;SDS011;77239;46.070;20.246;2024-03-23T07:14:01;26.65;;;15.23;;
86502;SDS011;77239;46.070;20.246;2024-03-23T07:16:27;28.65;;;16.40;;
86502;SDS011;77239;46.070;20.246;2024-03-23T07:18:53;30.02;;;16.67;;
86502;SDS011;77239;46.070;20.246;2024-03-23T07:21:19;31.33;;;16.85;;
86502;SDS011;77239;46.070;20.246;2024-03-23T07:23:44;25.08;;;15.82;;
86502;SDS011;77239;46.070;20.246;2024-03-23T07:26:10;24.77;;;16.40;;
86502;SDS011;77239;46.070;20.246;2024-03-23T07:28:35;24.15;;;13.93;;
86502;SDS011;77239;46.070;20.246;2024-03-23T07:33:27;27.05;;;14.85;;
86502;SDS011;77239;46.070;20.246;2024-03-23T07:35:53;25.80;;;16.17;;
86502;SDS011;77239;46.070;20.246;2024-03-23T07:38:18;27.92;;;16.38;;
86502;SDS011;77239;46.070;20.246;2024-03-23T07:40:44;23.30;;;14.57;;
86502;SDS011;77239;46.070;20.246;2024-03-23T07:43:09;26.10;;;15.32;;
86502;SDS011;77239;46.070;20.246;2024-03-23T07:45:35;28.42;;;14.90;;
86502;SDS011;77239;46.070;20.246;2024-03-23T07:48:00;24.17;;;14.20;;
86502;SDS011;77239;46.070;20.246;2024-03-23T07:50:26;23.35;;;13.57;;
86502;SDS011;77239;46.070;20.246;2024-03-23T07:52:51;21.52;;;13.10;;
86502;SDS011;77239;46.070;20.246;2024-03-23T07:55:16;24.23;;;13.68;;
86502;SDS011;77239;46.070;20.246;2024-03-23T07:57:42;27.95;;;14.32;;
86502;SDS011;77239;46.070;20.246;2024-03-23T08:00:07;21.98;;;13.48;;
86502;SDS011;77239;46.070;20.246;2024-03-23T08:02:33;22.10;;;12.90;;
86502;SDS011;77239;46.070;20.246;2024-03-23T08:04:59;26.42;;;13.60;;
86502;SDS011;77239;46.070;20.246;2024-03-23T08:07:24;21.23;;;12.73;;
86502;SDS011;77239;46.070;20.246;2024-03-23T08:09:50;21.80;;;12.85;;
86502;SDS011;77239;46.070;20.246;2024-03-23T08:12:16;23.17;;;12.07;;
86502;SDS011;77239;46.070;20.246;2024-03-23T08:14:41;20.75;;;12.77;;
86502;SDS011;77239;46.070;20.246;2024-03-23T08:17:07;26.70;;;13.30;;
86502;SDS011;77239;46.070;20.246;2024-03-23T08:19:33;20.80;;;11.50;;
86502;SDS011;77239;46.070;20.246;2024-03-23T08:21:59;18.70;;;12.48;;
86502;SDS011;77239;46.070;20.246;2024-03-23T08:24:25;20.20;;;10.45;;
86502;SDS011;77239;46.070;20.246;2024-03-23T08:26:50;19.75;;;10.93;;
86502;SDS011;77239;46.070;20.246;2024-03-23T08:29:15;15.57;;;10.10;;
86502;SDS011;77239;46.070;20.246;2024-03-23T08:31:41;18.73;;;10.90;;
86502;SDS011;77239;46.070;20.246;2024-03-23T08:34:06;15.27;;;9.73;;
86502;SDS011;77239;46.070;20.246;2024-03-23T08:36:35;22.73;;;10.15;;
86502;SDS011;77239;46.070;20.246;2024-03-23T08:39:00;18.92;;;10.68;;
86502;SDS011;77239;46.070;20.246;2024-03-23T08:41:25;18.83;;;9.95;;
86502;SDS011;77239;46.070;20.246;2024-03-23T08:43:51;16.08;;;10.10;;
86502;SDS011;77239;46.070;20.246;2024-03-23T08:46:19;15.70;;;9.30;;
86502;SDS011;77239;46.070;20.246;2024-03-23T08:48:45;17.88;;;10.35;;
86502;SDS011;77239;46.070;20.246;2024-03-23T08:51:14;19.55;;;10.05;;
86502;SDS011;77239;46.070;20.246;2024-03-23T08:53:40;18.70;;;9.93;;
86502;SDS011;77239;46.070;20.246;2024-03-23T08:56:09;15.75;;;8.88;;
86502;SDS011;77239;46.070;20.246;2024-03-23T08:58:36;15.02;;;9.90;;
86502;SDS011;77239;46.070;20.246;2024-03-23T09:01:12;17.27;;;9.65;;
86502;SDS011;77239;46.070;20.246;2024-03-23T09:03:41;17.02;;;10.32;;
86502;SDS011;77239;46.070;20.246;2024-03-23T09:06:10;18.25;;;10.13;;
86502;SDS011;77239;46.070;20.246;2024-03-23T09:08:37;18.77;;;9.98;;
86502;SDS011;77239;46.070;20.246;2024-03-23T09:11:04;17.55;;;10.10;;
86502;SDS011;77239;46.070;20.246;2024-03-23T09:13:31;16.98;;;8.25;;
86502;SDS011;77239;46.070;20.246;2024-03-23T09:16:00;15.32;;;7.32;;
86502;SDS011;77239;46.070;20.246;2024-03-23T09:18:26;18.23;;;9.05;;
86502;SDS011;77239;46.070;20.246;2024-03-23T09:20:52;11.88;;;7.28;;
86502;SDS011;77239;46.070;20.246;2024-03-23T09:23:19;13.70;;;7.78;;
86502;SDS011;77239;46.070;20.246;2024-03-23T09:25:47;17.67;;;8.10;;
86502;SDS011;77239;46.070;20.246;2024-03-23T09:28:13;13.63;;;8.32;;
86502;SDS011;77239;46.070;20.246;2024-03-23T09:30:39;12.18;;;7.38;;
86502;SDS011;77239;46.070;20.246;2024-03-23T09:33:07;14.98;;;7.75;;
86502;SDS011;77239;46.070;20.246;2024-03-23T09:35:36;15.85;;;7.22;;
86502;SDS011;77239;46.070;20.246;2024-03-23T09:38:05;15.48;;;8.00;;
86502;SDS011;77239;46.070;20.246;2024-03-23T09:40:32;14.00;;;7.82;;
86502;SDS011;77239;46.070;20.246;2024-03-23T09:42:58;13.43;;;6.80;;
86502;SDS011;77239;46.070;20.246;2024-03-23T09:45:28;12.93;;;7.00;;
86502;SDS011;77239;46.070;20.246;2024-03-23T09:47:55;10.15;;;7.20;;
86502;SDS011;77239;46.070;20.246;2024-03-23T09:50:21;12.27;;;6.85;;
86502;SDS011;77239;46.070;20.246;2024-03-23T09:52:47;10.60;;;6.28;;
86502;SDS011;77239;46.070;20.246;2024-03-23T09:55:12;9.43;;;6.05;;
86502;SDS011;77239;46.070;20.246;2024-03-23T09:57:39;11.70;;;6.18;;
86502;SDS011;77239;46.070;20.246;2024-03-23T10:00:05;14.45;;;7.28;;
86502;SDS011;77239;46.070;20.246;2024-03-23T10:02:31;10.27;;;6.25;;
86502;SDS011;77239;46.070;20.246;2024-03-23T10:04:57;12.27;;;5.70;;
86502;SDS011;77239;46.070;20.246;2024-03-23T10:07:23;11.77;;;4.95;;
86502;SDS011;77239;46.070;20.246;2024-03-23T10:09:48;11.73;;;5.72;;
86502;SDS011;77239;46.070;20.246;2024-03-23T10:12:17;8.93;;;5.38;;
86502;SDS011;77239;46.070;20.246;2024-03-23T10:14:43;10.65;;;4.82;;
86502;SDS011;77239;46.070;20.246;2024-03-23T10:19:43;8.60;;;4.30;;
86502;SDS011;77239;46.070;20.246;2024-03-23T10:22:19;8.38;;;5.30;;
86502;SDS011;77239;46.070;20.246;2024-03-23T10:24:46;8.43;;;4.88;;
86502;SDS011;77239;46.070;20.246;2024-03-23T10:27:15;9.50;;;5.47;;
86502;SDS011;77239;46.070;20.246;2024-03-23T10:29:42;10.52;;;5.30;;
86502;SDS011;77239;46.070;20.246;2024-03-23T10:34:36;7.53;;;4.75;;
86502;SDS011;77239;46.070;20.246;2024-03-23T10:37:02;8.70;;;4.25;;
86502;SDS011;77239;46.070;20.246;2024-03-23T10:39:32;7.07;;;4.85;;
86502;SDS011;77239;46.070;20.246;2024-03-23T10:42:00;10.63;;;4.93;;
86502;SDS011;77239;46.070;20.246;2024-03-23T10:44:28;7.03;;;4.32;;
86502;SDS011;77239;46.070;20.246;2024-03-23T10:46:55;6.35;;;4.72;;
86502;SDS011;77239;46.070;20.246;2024-03-23T10:49:25;5.72;;;3.95;;
86502;SDS011;77239;46.070;20.246;2024-03-23T10:51:52;12.18;;;5.15;;
86502;SDS011;77239;46.070;20.246;2024-03-23T10:54:18;7.90;;;4.60;;
86502;SDS011;77239;46.070;20.246;2024-03-23T10:56:45;8.82;;;4.43;;
86502;SDS011;77239;46.070;20.246;2024-03-23T10:59:13;8.43;;;4.47;;
86502;SDS011;77239;46.070;20.246;2024-03-23T11:01:55;9.32;;;4.60;;
86502;SDS011;77239;46.070;20.246;2024-03-23T11:06:56;11.40;;;4.63;;
86502;SDS011;77239;46.070;20.246;2024-03-23T11:14:47;7.70;;;4.75;;
86502;SDS011;77239;46.070;20.246;2024-03-23T11:17:19;10.32;;;4.22;;
86502;SDS011;77239;46.070;20.246;2024-03-23T11:19:52;9.20;;;4.32;;
86502;SDS011;77239;46.070;20.246;2024-03-23T11:25:02;7.65;;;4.50;;
86502;SDS011;77239;46.070;20.246;2024-03-23T11:27:28;6.70;;;4.65;;
86502;SDS011;77239;46.070;20.246;2024-03-23T11:29:53;15.02;;;4.95;;
86502;SDS011;77239;46.070;20.246;2024-03-23T11:32:19;11.43;;;4.75;;
86502;SDS011;77239;46.070;20.246;2024-03-23T11:34:44;6.45;;;4.25;;
86502;SDS011;77239;46.070;20.246;2024-03-23T11:37:10;7.03;;;4.40;;
86502;SDS011;77239;46.070;20.246;2024-03-23T11:39:35;6.60;;;4.35;;
86502;SDS011;77239;46.070;20.246;2024-03-23T11:42:00;6.97;;;4.45;;
86502;SDS011;77239;46.070;20.246;2024-03-23T11:44:26;6.35;;;3.50;;
86502;SDS011;77239;46.070;20.246;2024-03-23T11:46:52;6.07;;;4.10;;
86502;SDS011;77239;46.070;20.246;2024-03-23T11:51:47;14.25;;;5.00;;
86502;SDS011;77239;46.070;20.246;2024-03-23T11:54:13;7.15;;;3.50;;
86502;SDS011;77239;46.070;20.246;2024-03-23T11:56:38;7.90;;;4.88;;
86502;SDS011;77239;46.070;20.246;2024-03-23T11:59:04;11.40;;;4.85;;
86502;SDS011;77239;46.070;20.246;2024-03-23T12:01:29;8.77;;;4.93;;
86502;SDS011;77239;46.070;20.246;2024-03-23T12:03:55;7.53;;;4.25;;
86502;SDS011;77239;46.070;20.246;2024-03-23T12:06:21;7.80;;;4.43;;
86502;SDS011;77239;46.070;20.246;2024-03-23T12:08:46;8.82;;;3.92;;
86502;SDS011;77239;46.070;20.246;2024-03-23T12:11:16;6.00;;;4.63;;
86502;SDS011;77239;46.070;20.246;2024-03-23T12:13:44;14.73;;;4.60;;
86502;SDS011;77239;46.070;20.246;2024-03-23T12:18:46;11.52;;;3.58;;
86502;SDS011;77239;46.070;20.246;2024-03-23T12:21:12;8.32;;;3.80;;
86502;SDS011;77239;46.070;20.246;2024-03-23T12:23:39;7.18;;;3.63;;
86502;SDS011;77239;46.070;20.246;2024-03-23T12:26:04;9.27;;;3.30;;
86502;SDS011;77239;46.070;20.246;2024-03-23T12:28:30;13.27;;;6.53;;
86502;SDS011;77239;46.070;20.246;2024-03-23T12:30:55;9.70;;;4.13;;
86502;SDS011;77239;46.070;20.246;2024-03-23T12:33:21;8.50;;;3.60;;
86502;SDS011;77239;46.070;20.246;2024-03-23T12:35:47;6.22;;;3.28;;
86502;SDS011;77239;46.070;20.246;2024-03-23T12:38:13;3.88;;;3.17;;
86502;SDS011;77239;46.070;20.246;2024-03-23T12:40:38;6.90;;;3.55;;
86502;SDS011;77239;46.070;20.246;2024-03-23T12:43:03;8.43;;;3.60;;
86502;SDS011;77239;46.070;20.246;2024-03-23T12:45:29;9.93;;;3.50;;
86502;SDS011;77239;46.070;20.246;2024-03-23T12:47:54;8.27;;;3.17;;
86502;SDS011;77239;46.070;20.246;2024-03-23T12:50:20;6.20;;;3.45;;
86502;SDS011;77239;46.070;20.246;2024-03-23T12:52:46;8.70;;;3.55;;
86502;SDS011;77239;46.070;20.246;2024-03-23T12:55:12;7.63;;;4.70;;
86502;SDS011;77239;46.070;20.246;2024-03-23T12:57:37;6.05;;;3.90;;
86502;SDS011;77239;46.070;20.246;2024-03-23T13:00:03;7.50;;;3.60;;
86502;SDS011;77239;46.070;20.246;2024-03-23T13:02:29;7.63;;;3.42;;
86502;SDS011;77239;46.070;20.246;2024-03-23T13:04:55;51.15;;;9.07;;
86502;SDS011;77239;46.070;20.246;2024-03-23T13:07:21;8.35;;;4.75;;
86502;SDS011;77239;46.070;20.246;2024-03-23T13:09:50;6.05;;;3.70;;
86502;SDS011;77239;46.070;20.246;2024-03-23T13:12:17;10.50;;;3.85;;
86502;SDS011;77239;46.070;20.246;2024-03-23T13:14:44;8.63;;;4.28;;
86502;SDS011;77239;46.070;20.246;2024-03-23T13:17:09;5.85;;;3.63;;
86502;SDS011;77239;46.070;20.246;2024-03-23T13:19:35;6.53;;;4.50;;
86502;SDS011;77239;46.070;20.246;2024-03-23T13:22:00;4.57;;;3.38;;
86502;SDS011;77239;46.070;20.246;2024-03-23T13:24:26;4.53;;;2.92;;
86502;SDS011;77239;46.070;20.246;2024-03-23T13:26:53;7.35;;;3.63;;
86502;SDS011;77239;46.070;20.246;2024-03-23T13:29:20;5.60;;;3.53;;
86502;SDS011;77239;46.070;20.246;2024-03-23T13:31:46;5.75;;;3.10;;
86502;SDS011;77239;46.070;20.246;2024-03-23T13:34:12;6.88;;;3.35;;
86502;SDS011;77239;46.070;20.246;2024-03-23T13:36:39;5.63;;;3.83;;
86502;SDS011;77239;46.070;20.246;2024-03-23T13:39:05;5.57;;;3.40;;
86502;SDS011;77239;46.070;20.246;2024-03-23T13:41:36;10.73;;;3.80;;
86502;SDS011;77239;46.070;20.246;2024-03-23T13:44:08;3.72;;;2.63;;
86502;SDS011;77239;46.070;20.246;2024-03-23T13:46:35;6.05;;;2.80;;
86502;SDS011;77239;46.070;20.246;2024-03-23T13:49:01;4.72;;;2.35;;
86502;SDS011;77239;46.070;20.246;2024-03-23T13:51:27;5.63;;;2.20;;
86502;SDS011;77239;46.070;20.246;2024-03-23T13:53:53;4.85;;;2.35;;
86502;SDS011;77239;46.070;20.246;2024-03-23T13:56:19;4.50;;;2.17;;
86502;SDS011;77239;46.070;20.246;2024-03-23T13:58:44;2.75;;;2.28;;
86502;SDS011;77239;46.070;20.246;2024-03-23T14:03:37;5.30;;;2.75;;
86502;SDS011;77239;46.070;20.246;2024-03-23T14:06:03;5.07;;;2.28;;
86502;SDS011;77239;46.070;20.246;2024-03-23T14:08:29;5.55;;;3.03;;
86502;SDS011;77239;46.070;20.246;2024-03-23T14:10:57;5.38;;;3.25;;
86502;SDS011;77239;46.070;20.246;2024-03-23T14:13:22;5.22;;;3.20;;
86502;SDS011;77239;46.070;20.246;2024-03-23T14:15:52;4.43;;;2.63;;
86502;SDS011;77239;46.070;20.246;2024-03-23T14:18:18;6.38;;;3.15;;
86502;SDS011;77239;46.070;20.246;2024-03-23T14:20:43;6.03;;;2.85;;
86502;SDS011;77239;46.070;20.246;2024-03-23T14:23:09;5.78;;;3.10;;
86502;SDS011;77239;46.070;20.246;2024-03-23T14:25:34;4.55;;;2.25;;
86502;SDS011;77239;46.070;20.246;2024-03-23T14:27:59;2.80;;;1.98;;
86502;SDS011;77239;46.070;20.246;2024-03-23T14:30:25;7.63;;;2.45;;
86502;SDS011;77239;46.070;20.246;2024-03-23T14:32:50;5.82;;;2.38;;
86502;SDS011;77239;46.070;20.246;2024-03-23T14:35:16;5.68;;;2.47;;
86502;SDS011;77239;46.070;20.246;2024-03-23T14:37:41;13.30;;;3.95;;
86502;SDS011;77239;46.070;20.246;2024-03-23T14:40:07;6.10;;;2.63;;
86502;SDS011;77239;46.070;20.246;2024-03-23T14:42:33;5.85;;;2.55;;
86502;SDS011;77239;46.070;20.246;2024-03-23T14:44:59;7.05;;;2.70;;
86502;SDS011;77239;46.070;20.246;2024-03-23T14:47:24;6.22;;;2.80;;
86502;SDS011;77239;46.070;20.246;2024-03-23T14:49:50;6.43;;;2.70;;
86502;SDS011;77239;46.070;20.246;2024-03-23T14:52:19;3.13;;;2.08;;
86502;SDS011;77239;46.070;20.246;2024-03-23T15:06:23;8.80;;;2.42;;
86502;SDS011;77239;46.070;20.246;2024-03-23T15:08:49;9.82;;;4.43;;
86502;SDS011;77239;46.070;20.246;2024-03-23T15:11:14;14.57;;;7.63;;
86502;SDS011;77239;46.070;20.246;2024-03-23T15:13:43;14.00;;;6.28;;
86502;SDS011;77239;46.070;20.246;2024-03-23T15:16:08;17.48;;;7.32;;
86502;SDS011;77239;46.070;20.246;2024-03-23T15:18:34;11.48;;;6.10;;
86502;SDS011;77239;46.070;20.246;2024-03-23T15:21:01;8.05;;;3.55;;
86502;SDS011;77239;46.070;20.246;2024-03-23T15:23:28;4.55;;;2.95;;
86502;SDS011;77239;46.070;20.246;2024-03-23T15:25:57;7.28;;;2.88;;
86502;SDS011;77239;46.070;20.246;2024-03-23T15:28:23;4.20;;;2.63;;
86502;SDS011;77239;46.070;20.246;2024-03-23T15:30:52;7.32;;;2.80;;
86502;SDS011;77239;46.070;20.246;2024-03-23T15:33:17;147.10;;;85.20;;
86502;SDS011;77239;46.070;20.246;2024-03-23T15:35:43;14.98;;;8.32;;
86502;SDS011;77239;46.070;20.246;2024-03-23T15:38:08;9.68;;;4.80;;
86502;SDS011;77239;46.070;20.246;2024-03-23T15:40:34;7.38;;;3.55;;
86502;SDS011;77239;46.070;20.246;2024-03-23T15:43:00;9.05;;;3.83;;
86502;SDS011;77239;46.070;20.246;2024-03-23T15:45:25;7.10;;;3.85;;